sensor_id;sensor_type;location;lat;lon;timestamp;temperature;humidity
22161;DHT22;49035;48.812;11.762;2023-04-15T00:01:58;4.70;99.90
22161;DHT22;49035;48.812;11.762;2023-04-15T00:04:25;4.70;99.90
22161;DHT22;49035;48.812;11.762;2023-04-15T00:06:51;4.80;99.90
22161;DHT22;49035;48.812;11.762;2023-04-15T00:09:18;4.80;99.90
22161;DHT22;49035;48.812;11.762;2023-04-15T00:11:44;4.80;99.90
22161;DHT22;49035;48.812;11.762;2023-04-15T00:14:12;4.80;99.90
22161;DHT22;49035;48.812;11.762;2023-04-15T00:16:37;4.80;99.90
22161;DHT22;49035;48.812;11.762;2023-04-15T00:19:03;5.00;99.90
22161;DHT22;49035;48.812;11.762;2023-04-15T00:21:29;5.10;99.90
22161;DHT22;49035;48.812;11.762;2023-04-15T00:23:55;5.10;99.90
22161;DHT22;49035;48.812;11.762;2023-04-15T00:26:21;5.20;99.90
22161;DHT22;49035;48.812;11.762;2023-04-15T00:28:46;5.20;99.90
22161;DHT22;49035;48.812;11.762;2023-04-15T00:31:12;5.10;99.90
22161;DHT22;49035;48.812;11.762;2023-04-15T00:33:38;5.10;99.90
22161;DHT22;49035;48.812;11.762;2023-04-15T00:36:05;5.10;99.90
22161;DHT22;49035;48.812;11.762;2023-04-15T00:38:31;5.10;99.90
22161;DHT22;49035;48.812;11.762;2023-04-15T00:40:57;5.10;99.90
22161;DHT22;49035;48.812;11.762;2023-04-15T00:43:22;5.00;99.90
22161;DHT22;49035;48.812;11.762;2023-04-15T00:45:49;5.10;99.90
22161;DHT22;49035;48.812;11.762;2023-04-15T00:48:16;5.00;99.90
22161;DHT22;49035;48.812;11.762;2023-04-15T00:50:41;5.10;99.90
22161;DHT22;49035;48.812;11.762;2023-04-15T00:53:07;5.20;99.90
22161;DHT22;49035;48.812;11.762;2023-04-15T00:55:32;5.20;99.90
22161;DHT22;49035;48.812;11.762;2023-04-15T00:57:58;5.20;99.90
22161;DHT22;49035;48.812;11.762;2023-04-15T01:00:24;5.20;99.90
22161;DHT22;49035;48.812;11.762;2023-04-15T01:02:49;5.20;99.90
22161;DHT22;49035;48.812;11.762;2023-04-15T01:05:16;5.20;99.90
22161;DHT22;49035;48.812;11.762;2023-04-15T01:07:42;5.30;99.90
22161;DHT22;49035;48.812;11.762;2023-04-15T01:10:08;5.30;99.90
22161;DHT22;49035;48.812;11.762;2023-04-15T01:12:34;5.30;99.90
22161;DHT22;49035;48.812;11.762;2023-04-15T01:15:01;5.30;99.90
22161;DHT22;49035;48.812;11.762;2023-04-15T01:17:26;5.30;99.90
22161;DHT22;49035;48.812;11.762;2023-04-15T01:19:55;5.40;99.90
22161;DHT22;49035;48.812;11.762;2023-04-15T01:22:21;5.40;99.90
22161;DHT22;49035;48.812;11.762;2023-04-15T01:25:00;5.40;99.90
22161;DHT22;49035;48.812;11.762;2023-04-15T01:27:26;5.50;99.90
22161;DHT22;49035;48.812;11.762;2023-04-15T01:29:52;5.50;99.90
22161;DHT22;49035;48.812;11.762;2023-04-15T01:32:18;5.40;99.90
22161;DHT22;49035;48.812;11.762;2023-04-15T01:34:44;5.40;99.90
22161;DHT22;49035;48.812;11.762;2023-04-15T01:37:10;5.40;99.90
22161;DHT22;49035;48.812;11.762;2023-04-15T01:39:36;5.40;99.90
22161;DHT22;49035;48.812;11.762;2023-04-15T01:42:01;5.40;99.90
22161;DHT22;49035;48.812;11.762;2023-04-15T01:44:27;5.40;99.90
22161;DHT22;49035;48.812;11.762;2023-04-15T01:46:53;5.50;99.90
22161;DHT22;49035;48.812;11.762;2023-04-15T01:49:18;5.40;99.90
22161;DHT22;49035;48.812;11.762;2023-04-15T01:51:44;5.50;99.90
22161;DHT22;49035;48.812;11.762;2023-04-15T01:54:09;5.50;99.90
22161;DHT22;49035;48.812;11.762;2023-04-15T01:56:35;5.50;99.90
22161;DHT22;49035;48.812;11.762;2023-04-15T01:59:01;5.50;99.90
22161;DHT22;49035;48.812;11.762;2023-04-15T02:01:28;5.50;99.90
22161;DHT22;49035;48.812;11.762;2023-04-15T02:03:53;5.60;99.90
22161;DHT22;49035;48.812;11.762;2023-04-15T02:06:19;5.60;99.90
22161;DHT22;49035;48.812;11.762;2023-04-15T02:08:45;5.50;99.90
22161;DHT22;49035;48.812;11.762;2023-04-15T02:11:11;5.40;99.90
22161;DHT22;49035;48.812;11.762;2023-04-15T02:13:36;5.30;99.90
22161;DHT22;49035;48.812;11.762;2023-04-15T02:16:02;5.30;99.90
22161;DHT22;49035;48.812;11.762;2023-04-15T02:18:28;5.40;99.90
22161;DHT22;49035;48.812;11.762;2023-04-15T02:20:53;5.30;99.90
22161;DHT22;49035;48.812;11.762;2023-04-15T02:23:21;5.30;99.90
22161;DHT22;49035;48.812;11.762;2023-04-15T02:25:47;5.30;99.90
22161;DHT22;49035;48.812;11.762;2023-04-15T02:28:12;5.20;99.90
22161;DHT22;49035;48.812;11.762;2023-04-15T02:30:38;5.20;99.90
22161;DHT22;49035;48.812;11.762;2023-04-15T02:33:05;5.20;99.90
22161;DHT22;49035;48.812;11.762;2023-04-15T02:35:31;5.20;99.90
22161;DHT22;49035;48.812;11.762;2023-04-15T02:37:57;5.10;99.90
22161;DHT22;49035;48.812;11.762;2023-04-15T02:40:22;5.10;99.90
22161;DHT22;49035;48.812;11.762;2023-04-15T02:42:48;5.10;99.90
22161;DHT22;49035;48.812;11.762;2023-04-15T02:45:14;5.10;99.90
22161;DHT22;49035;48.812;11.762;2023-04-15T02:47:39;5.10;99.90
22161;DHT22;49035;48.812;11.762;2023-04-15T02:50:11;5.10;99.90
22161;DHT22;49035;48.812;11.762;2023-04-15T02:52:39;5.00;99.90
22161;DHT22;49035;48.812;11.762;2023-04-15T02:55:06;5.00;99.90
22161;DHT22;49035;48.812;11.762;2023-04-15T02:57:32;5.10;99.90
22161;DHT22;49035;48.812;11.762;2023-04-15T02:59:59;5.10;99.90
22161;DHT22;49035;48.812;11.762;2023-04-15T03:02:24;5.10;99.90
22161;DHT22;49035;48.812;11.762;2023-04-15T03:04:50;5.10;99.90
22161;DHT22;49035;48.812;11.762;2023-04-15T03:07:17;5.10;99.90
22161;DHT22;49035;48.812;11.762;2023-04-15T03:09:43;5.10;99.90
22161;DHT22;49035;48.812;11.762;2023-04-15T03:12:09;5.10;99.90
22161;DHT22;49035;48.812;11.762;2023-04-15T03:14:34;5.10;99.90
22161;DHT22;49035;48.812;11.762;2023-04-15T03:17:00;5.10;99.90
22161;DHT22;49035;48.812;11.762;2023-04-15T03:19:26;5.20;99.90
22161;DHT22;49035;48.812;11.762;2023-04-15T03:21:51;5.30;99.90
22161;DHT22;49035;48.812;11.762;2023-04-15T03:24:17;5.30;99.90
22161;DHT22;49035;48.812;11.762;2023-04-15T03:26:43;5.30;99.90
22161;DHT22;49035;48.812;11.762;2023-04-15T03:29:09;5.40;99.90
22161;DHT22;49035;48.812;11.762;2023-04-15T03:31:35;5.40;99.90
22161;DHT22;49035;48.812;11.762;2023-04-15T03:34:01;5.40;99.90
22161;DHT22;49035;48.812;11.762;2023-04-15T03:36:28;5.50;99.90
22161;DHT22;49035;48.812;11.762;2023-04-15T03:38:55;5.40;99.90
22161;DHT22;49035;48.812;11.762;2023-04-15T03:41:22;5.50;99.90
22161;DHT22;49035;48.812;11.762;2023-04-15T03:43:47;5.50;99.90
22161;DHT22;49035;48.812;11.762;2023-04-15T03:46:13;5.50;99.90
22161;DHT22;49035;48.812;11.762;2023-04-15T03:48:39;5.50;99.90
22161;DHT22;49035;48.812;11.762;2023-04-15T03:51:04;5.40;99.90
22161;DHT22;49035;48.812;11.762;2023-04-15T03:53:30;5.40;99.90
22161;DHT22;49035;48.812;11.762;2023-04-15T03:55:55;5.40;99.90
22161;DHT22;49035;48.812;11.762;2023-04-15T03:58:21;5.40;99.90
22161;DHT22;49035;48.812;11.762;2023-04-15T04:00:47;5.40;99.90
22161;DHT22;49035;48.812;11.762;2023-04-15T04:03:12;5.40;99.90
22161;DHT22;49035;48.812;11.762;2023-04-15T04:05:38;5.40;99.90
22161;DHT22;49035;48.812;11.762;2023-04-15T04:08:05;5.40;99.90
22161;DHT22;49035;48.812;11.762;2023-04-15T04:10:31;5.50;99.90
22161;DHT22;49035;48.812;11.762;2023-04-15T04:12:57;5.40;99.90
22161;DHT22;49035;48.812;11.762;2023-04-15T04:15:22;5.40;99.90
22161;DHT22;49035;48.812;11.762;2023-04-15T04:17:48;5.50;99.90
22161;DHT22;49035;48.812;11.762;2023-04-15T04:20:13;5.40;99.90
22161;DHT22;49035;48.812;11.762;2023-04-15T04:22:39;5.50;99.90
22161;DHT22;49035;48.812;11.762;2023-04-15T04:25:06;5.50;99.90
22161;DHT22;49035;48.812;11.762;2023-04-15T04:27:33;5.40;99.90
22161;DHT22;49035;48.812;11.762;2023-04-15T04:29:59;5.40;99.90
22161;DHT22;49035;48.812;11.762;2023-04-15T04:32:24;5.40;99.90
22161;DHT22;49035;48.812;11.762;2023-04-15T04:34:50;5.40;99.90
22161;DHT22;49035;48.812;11.762;2023-04-15T04:37:15;5.40;99.90
22161;DHT22;49035;48.812;11.762;2023-04-15T04:39:41;5.40;99.90
22161;DHT22;49035;48.812;11.762;2023-04-15T04:42:06;5.40;99.90
22161;DHT22;49035;48.812;11.762;2023-04-15T04:44:32;5.40;99.90
22161;DHT22;49035;48.812;11.762;2023-04-15T04:46:58;5.40;99.90
22161;DHT22;49035;48.812;11.762;2023-04-15T04:49:23;5.40;99.90
22161;DHT22;49035;48.812;11.762;2023-04-15T04:51:49;5.40;99.90
22161;DHT22;49035;48.812;11.762;2023-04-15T04:54:15;5.40;99.90
22161;DHT22;49035;48.812;11.762;2023-04-15T04:56:41;5.40;99.90
22161;DHT22;49035;48.812;11.762;2023-04-15T04:59:06;5.40;99.90
22161;DHT22;49035;48.812;11.762;2023-04-15T05:01:32;5.40;99.90
22161;DHT22;49035;48.812;11.762;2023-04-15T05:03:58;5.40;99.90
22161;DHT22;49035;48.812;11.762;2023-04-15T05:06:24;5.40;99.90
22161;DHT22;49035;48.812;11.762;2023-04-15T05:08:50;5.40;99.90
22161;DHT22;49035;48.812;11.762;2023-04-15T05:11:16;5.40;99.90
22161;DHT22;49035;48.812;11.762;2023-04-15T05:13:41;5.40;99.90
22161;DHT22;49035;48.812;11.762;2023-04-15T05:16:07;5.50;99.90
22161;DHT22;49035;48.812;11.762;2023-04-15T05:18:33;5.40;99.90
22161;DHT22;49035;48.812;11.762;2023-04-15T05:20:59;5.40;99.90
22161;DHT22;49035;48.812;11.762;2023-04-15T05:23:25;5.50;99.90
22161;DHT22;49035;48.812;11.762;2023-04-15T05:25:51;5.50;99.90
22161;DHT22;49035;48.812;11.762;2023-04-15T05:28:17;5.50;99.90
22161;DHT22;49035;48.812;11.762;2023-04-15T05:30:42;5.50;99.90
22161;DHT22;49035;48.812;11.762;2023-04-15T05:33:08;5.60;99.90
22161;DHT22;49035;48.812;11.762;2023-04-15T05:35:33;5.60;99.90
22161;DHT22;49035;48.812;11.762;2023-04-15T05:37:59;5.60;99.90
22161;DHT22;49035;48.812;11.762;2023-04-15T05:40:25;5.60;99.90
22161;DHT22;49035;48.812;11.762;2023-04-15T05:42:50;5.60;99.90
22161;DHT22;49035;48.812;11.762;2023-04-15T05:45:16;5.70;99.90
22161;DHT22;49035;48.812;11.762;2023-04-15T05:47:42;5.70;99.90
22161;DHT22;49035;48.812;11.762;2023-04-15T05:50:07;5.70;99.90
22161;DHT22;49035;48.812;11.762;2023-04-15T05:52:33;5.70;99.90
22161;DHT22;49035;48.812;11.762;2023-04-15T05:54:59;5.60;99.90
22161;DHT22;49035;48.812;11.762;2023-04-15T05:57:25;5.70;99.90
22161;DHT22;49035;48.812;11.762;2023-04-15T05:59:50;5.80;99.90
22161;DHT22;49035;48.812;11.762;2023-04-15T06:02:17;5.70;99.90
22161;DHT22;49035;48.812;11.762;2023-04-15T06:04:42;5.70;99.90
22161;DHT22;49035;48.812;11.762;2023-04-15T06:07:08;5.80;99.90
22161;DHT22;49035;48.812;11.762;2023-04-15T06:09:34;5.80;99.90
22161;DHT22;49035;48.812;11.762;2023-04-15T06:12:00;5.80;99.90
22161;DHT22;49035;48.812;11.762;2023-04-15T06:14:26;5.90;99.90
22161;DHT22;49035;48.812;11.762;2023-04-15T06:16:52;6.00;99.90
22161;DHT22;49035;48.812;11.762;2023-04-15T06:19:18;6.00;99.90
22161;DHT22;49035;48.812;11.762;2023-04-15T06:21:44;6.10;99.90
22161;DHT22;49035;48.812;11.762;2023-04-15T06:24:10;6.20;99.90
22161;DHT22;49035;48.812;11.762;2023-04-15T06:26:36;6.30;99.90
22161;DHT22;49035;48.812;11.762;2023-04-15T06:29:01;6.30;99.90
22161;DHT22;49035;48.812;11.762;2023-04-15T06:31:27;6.40;99.90
22161;DHT22;49035;48.812;11.762;2023-04-15T06:33:53;6.40;99.90
22161;DHT22;49035;48.812;11.762;2023-04-15T06:36:18;6.50;99.90
22161;DHT22;49035;48.812;11.762;2023-04-15T06:38:44;6.40;99.90
22161;DHT22;49035;48.812;11.762;2023-04-15T06:41:10;6.50;99.90
22161;DHT22;49035;48.812;11.762;2023-04-15T06:43:35;6.70;99.90
22161;DHT22;49035;48.812;11.762;2023-04-15T06:46:01;6.80;99.90
22161;DHT22;49035;48.812;11.762;2023-04-15T06:48:26;7.00;99.90
22161;DHT22;49035;48.812;11.762;2023-04-15T06:50:52;7.10;99.90
22161;DHT22;49035;48.812;11.762;2023-04-15T06:53:18;7.20;99.90
22161;DHT22;49035;48.812;11.762;2023-04-15T06:55:43;7.30;99.90
22161;DHT22;49035;48.812;11.762;2023-04-15T06:58:09;7.40;99.90
22161;DHT22;49035;48.812;11.762;2023-04-15T07:00:35;7.20;99.90
22161;DHT22;49035;48.812;11.762;2023-04-15T07:03:03;7.20;99.90
22161;DHT22;49035;48.812;11.762;2023-04-15T07:05:29;7.20;99.90
22161;DHT22;49035;48.812;11.762;2023-04-15T07:07:55;7.10;99.90
22161;DHT22;49035;48.812;11.762;2023-04-15T07:10:21;7.00;99.90
22161;DHT22;49035;48.812;11.762;2023-04-15T07:12:47;7.10;99.90
22161;DHT22;49035;48.812;11.762;2023-04-15T07:15:13;7.10;99.90
22161;DHT22;49035;48.812;11.762;2023-04-15T07:17:40;7.30;99.90
22161;DHT22;49035;48.812;11.762;2023-04-15T07:20:06;7.40;99.90
22161;DHT22;49035;48.812;11.762;2023-04-15T07:22:32;7.30;99.90
22161;DHT22;49035;48.812;11.762;2023-04-15T07:24:58;7.20;99.90
22161;DHT22;49035;48.812;11.762;2023-04-15T07:27:24;7.20;99.90
22161;DHT22;49035;48.812;11.762;2023-04-15T07:29:50;7.20;99.90
22161;DHT22;49035;48.812;11.762;2023-04-15T07:32:16;7.20;99.90
22161;DHT22;49035;48.812;11.762;2023-04-15T07:34:42;7.20;99.90
22161;DHT22;49035;48.812;11.762;2023-04-15T07:37:08;7.30;99.90
22161;DHT22;49035;48.812;11.762;2023-04-15T07:39:34;7.40;99.90
22161;DHT22;49035;48.812;11.762;2023-04-15T07:42:00;7.40;99.90
22161;DHT22;49035;48.812;11.762;2023-04-15T07:44:26;7.40;99.90
22161;DHT22;49035;48.812;11.762;2023-04-15T07:46:52;7.40;99.90
22161;DHT22;49035;48.812;11.762;2023-04-15T07:49:18;7.40;99.90
22161;DHT22;49035;48.812;11.762;2023-04-15T07:51:47;7.60;99.90
22161;DHT22;49035;48.812;11.762;2023-04-15T07:54:13;7.60;99.90
22161;DHT22;49035;48.812;11.762;2023-04-15T07:56:39;7.60;99.90
22161;DHT22;49035;48.812;11.762;2023-04-15T07:59:05;7.60;99.90
22161;DHT22;49035;48.812;11.762;2023-04-15T08:01:31;7.60;99.90
22161;DHT22;49035;48.812;11.762;2023-04-15T08:03:58;7.70;99.90
22161;DHT22;49035;48.812;11.762;2023-04-15T08:06:23;7.70;99.90
22161;DHT22;49035;48.812;11.762;2023-04-15T08:08:49;7.90;99.90
22161;DHT22;49035;48.812;11.762;2023-04-15T08:11:15;8.20;99.90
22161;DHT22;49035;48.812;11.762;2023-04-15T08:13:41;8.30;99.90
22161;DHT22;49035;48.812;11.762;2023-04-15T08:16:23;8.20;99.90
22161;DHT22;49035;48.812;11.762;2023-04-15T08:18:51;8.30;99.90
22161;DHT22;49035;48.812;11.762;2023-04-15T08:21:18;8.30;99.90
22161;DHT22;49035;48.812;11.762;2023-04-15T08:23:45;8.50;99.90
22161;DHT22;49035;48.812;11.762;2023-04-15T08:26:11;8.40;99.90
22161;DHT22;49035;48.812;11.762;2023-04-15T08:28:38;8.60;99.90
22161;DHT22;49035;48.812;11.762;2023-04-15T08:31:03;8.60;99.90
22161;DHT22;49035;48.812;11.762;2023-04-15T08:33:29;8.50;99.90
22161;DHT22;49035;48.812;11.762;2023-04-15T08:35:55;8.50;99.90
22161;DHT22;49035;48.812;11.762;2023-04-15T08:38:21;8.70;99.90
22161;DHT22;49035;48.812;11.762;2023-04-15T08:40:47;9.20;99.90
22161;DHT22;49035;48.812;11.762;2023-04-15T08:45:44;9.50;99.90
22161;DHT22;49035;48.812;11.762;2023-04-15T08:48:14;9.30;99.90
22161;DHT22;49035;48.812;11.762;2023-04-15T08:50:41;9.20;99.90
22161;DHT22;49035;48.812;11.762;2023-04-15T08:53:07;8.90;99.90
22161;DHT22;49035;48.812;11.762;2023-04-15T08:55:35;8.60;99.90
22161;DHT22;49035;48.812;11.762;2023-04-15T08:58:01;8.30;99.90
22161;DHT22;49035;48.812;11.762;2023-04-15T09:00:28;8.10;99.90
22161;DHT22;49035;48.812;11.762;2023-04-15T09:02:55;8.20;99.90
22161;DHT22;49035;48.812;11.762;2023-04-15T09:05:21;8.20;99.90
22161;DHT22;49035;48.812;11.762;2023-04-15T09:07:49;8.30;99.90
22161;DHT22;49035;48.812;11.762;2023-04-15T09:10:14;8.20;99.90
22161;DHT22;49035;48.812;11.762;2023-04-15T09:12:40;8.20;99.90
22161;DHT22;49035;48.812;11.762;2023-04-15T09:15:07;8.30;99.90
22161;DHT22;49035;48.812;11.762;2023-04-15T09:17:41;8.50;99.90
22161;DHT22;49035;48.812;11.762;2023-04-15T09:20:12;8.50;99.90
22161;DHT22;49035;48.812;11.762;2023-04-15T09:22:42;8.50;99.90
22161;DHT22;49035;48.812;11.762;2023-04-15T09:27:57;8.40;99.90
22161;DHT22;49035;48.812;11.762;2023-04-15T09:30:23;8.40;99.90
22161;DHT22;49035;48.812;11.762;2023-04-15T09:33:00;8.30;99.90
22161;DHT22;49035;48.812;11.762;2023-04-15T09:35:35;8.40;99.90
22161;DHT22;49035;48.812;11.762;2023-04-15T09:38:03;8.20;99.90
22161;DHT22;49035;48.812;11.762;2023-04-15T09:40:40;8.10;99.90
22161;DHT22;49035;48.812;11.762;2023-04-15T09:43:08;8.20;99.90
22161;DHT22;49035;48.812;11.762;2023-04-15T09:45:34;8.30;99.90
22161;DHT22;49035;48.812;11.762;2023-04-15T09:48:21;8.30;99.90
22161;DHT22;49035;48.812;11.762;2023-04-15T09:50:48;8.40;99.90
22161;DHT22;49035;48.812;11.762;2023-04-15T09:53:21;8.50;99.90
22161;DHT22;49035;48.812;11.762;2023-04-15T09:55:52;8.40;99.90
22161;DHT22;49035;48.812;11.762;2023-04-15T10:00:48;8.30;99.90
22161;DHT22;49035;48.812;11.762;2023-04-15T10:03:26;8.40;99.90
22161;DHT22;49035;48.812;11.762;2023-04-15T10:05:53;8.50;99.90
22161;DHT22;49035;48.812;11.762;2023-04-15T10:08:22;8.60;99.90
22161;DHT22;49035;48.812;11.762;2023-04-15T10:10:49;8.90;99.90
22161;DHT22;49035;48.812;11.762;2023-04-15T10:13:20;9.20;99.90
22161;DHT22;49035;48.812;11.762;2023-04-15T10:16:09;9.30;99.90
22161;DHT22;49035;48.812;11.762;2023-04-15T10:18:39;9.50;99.90
22161;DHT22;49035;48.812;11.762;2023-04-15T10:21:06;9.60;99.90
22161;DHT22;49035;48.812;11.762;2023-04-15T10:23:33;9.70;99.90
22161;DHT22;49035;48.812;11.762;2023-04-15T10:25:59;9.80;99.90
22161;DHT22;49035;48.812;11.762;2023-04-15T10:28:25;9.80;99.90
22161;DHT22;49035;48.812;11.762;2023-04-15T10:30:51;9.90;99.90
22161;DHT22;49035;48.812;11.762;2023-04-15T10:33:20;9.80;99.90
22161;DHT22;49035;48.812;11.762;2023-04-15T10:35:47;9.90;99.90
22161;DHT22;49035;48.812;11.762;2023-04-15T10:41:15;9.90;99.90
22161;DHT22;49035;48.812;11.762;2023-04-15T10:43:54;9.80;99.90
22161;DHT22;49035;48.812;11.762;2023-04-15T10:46:37;9.50;99.90
22161;DHT22;49035;48.812;11.762;2023-04-15T10:49:14;9.40;99.90
22161;DHT22;49035;48.812;11.762;2023-04-15T10:59:58;9.10;99.90
22161;DHT22;49035;48.812;11.762;2023-04-15T11:03:04;9.10;99.90
22161;DHT22;49035;48.812;11.762;2023-04-15T11:05:51;9.20;99.90
22161;DHT22;49035;48.812;11.762;2023-04-15T11:08:17;9.30;99.90
22161;DHT22;49035;48.812;11.762;2023-04-15T11:15:35;9.40;99.90
22161;DHT22;49035;48.812;11.762;2023-04-15T11:20:43;9.60;99.90
22161;DHT22;49035;48.812;11.762;2023-04-15T11:23:10;9.60;99.90
22161;DHT22;49035;48.812;11.762;2023-04-15T11:25:36;9.90;99.90
22161;DHT22;49035;48.812;11.762;2023-04-15T11:28:04;9.90;99.90
22161;DHT22;49035;48.812;11.762;2023-04-15T11:30:33;10.00;99.90
22161;DHT22;49035;48.812;11.762;2023-04-15T11:33:01;9.90;99.90
22161;DHT22;49035;48.812;11.762;2023-04-15T11:35:28;10.10;99.90
22161;DHT22;49035;48.812;11.762;2023-04-15T11:37:54;10.20;99.90
22161;DHT22;49035;48.812;11.762;2023-04-15T11:40:24;10.20;99.90
22161;DHT22;49035;48.812;11.762;2023-04-15T11:45:49;10.20;99.90
22161;DHT22;49035;48.812;11.762;2023-04-15T11:48:15;9.80;99.90
22161;DHT22;49035;48.812;11.762;2023-04-15T11:50:41;9.70;99.90
22161;DHT22;49035;48.812;11.762;2023-04-15T11:53:08;9.50;99.90
22161;DHT22;49035;48.812;11.762;2023-04-15T11:56:01;9.50;99.90
22161;DHT22;49035;48.812;11.762;2023-04-15T11:58:28;9.50;99.90
22161;DHT22;49035;48.812;11.762;2023-04-15T12:00:58;9.20;99.90
22161;DHT22;49035;48.812;11.762;2023-04-15T12:03:28;9.10;99.90
22161;DHT22;49035;48.812;11.762;2023-04-15T12:08:51;9.20;99.90
22161;DHT22;49035;48.812;11.762;2023-04-15T12:11:26;9.40;99.90
22161;DHT22;49035;48.812;11.762;2023-04-15T12:16:52;9.40;99.90
22161;DHT22;49035;48.812;11.762;2023-04-15T12:19:35;9.30;99.90
22161;DHT22;49035;48.812;11.762;2023-04-15T12:22:03;9.00;99.90
22161;DHT22;49035;48.812;11.762;2023-04-15T12:24:32;9.10;99.90
22161;DHT22;49035;48.812;11.762;2023-04-15T12:27:08;9.10;99.90
22161;DHT22;49035;48.812;11.762;2023-04-15T12:29:36;8.80;99.90
22161;DHT22;49035;48.812;11.762;2023-04-15T12:32:07;8.80;99.90
22161;DHT22;49035;48.812;11.762;2023-04-15T12:34:35;8.90;99.90
22161;DHT22;49035;48.812;11.762;2023-04-15T12:37:03;8.90;99.90
22161;DHT22;49035;48.812;11.762;2023-04-15T12:39:30;8.90;99.90
22161;DHT22;49035;48.812;11.762;2023-04-15T12:41:57;8.80;99.90
22161;DHT22;49035;48.812;11.762;2023-04-15T12:44:26;8.90;99.90
22161;DHT22;49035;48.812;11.762;2023-04-15T12:46:52;8.90;99.90
22161;DHT22;49035;48.812;11.762;2023-04-15T12:49:18;9.30;99.90
22161;DHT22;49035;48.812;11.762;2023-04-15T12:51:47;9.50;99.90
22161;DHT22;49035;48.812;11.762;2023-04-15T12:54:13;9.70;99.90
22161;DHT22;49035;48.812;11.762;2023-04-15T12:56:38;9.70;99.90
22161;DHT22;49035;48.812;11.762;2023-04-15T12:59:04;9.80;99.90
22161;DHT22;49035;48.812;11.762;2023-04-15T13:01:30;10.10;99.90
22161;DHT22;49035;48.812;11.762;2023-04-15T13:03:55;10.50;99.90
22161;DHT22;49035;48.812;11.762;2023-04-15T13:06:21;10.70;99.90
22161;DHT22;49035;48.812;11.762;2023-04-15T13:08:48;10.70;99.90
22161;DHT22;49035;48.812;11.762;2023-04-15T13:11:14;10.50;99.90
22161;DHT22;49035;48.812;11.762;2023-04-15T13:13:39;10.30;99.90
22161;DHT22;49035;48.812;11.762;2023-04-15T13:16:05;9.90;99.90
22161;DHT22;49035;48.812;11.762;2023-04-15T13:18:31;9.60;99.90
22161;DHT22;49035;48.812;11.762;2023-04-15T13:20:59;9.40;99.90
22161;DHT22;49035;48.812;11.762;2023-04-15T13:23:25;9.20;99.90
22161;DHT22;49035;48.812;11.762;2023-04-15T13:25:50;9.10;99.90
22161;DHT22;49035;48.812;11.762;2023-04-15T13:28:16;9.10;99.90
22161;DHT22;49035;48.812;11.762;2023-04-15T13:30:42;9.00;99.90
22161;DHT22;49035;48.812;11.762;2023-04-15T13:33:08;8.90;99.90
22161;DHT22;49035;48.812;11.762;2023-04-15T13:35:34;9.00;99.90
22161;DHT22;49035;48.812;11.762;2023-04-15T13:38:00;8.80;99.90
22161;DHT22;49035;48.812;11.762;2023-04-15T13:40:26;8.70;99.90
22161;DHT22;49035;48.812;11.762;2023-04-15T13:42:51;8.70;99.90
22161;DHT22;49035;48.812;11.762;2023-04-15T13:45:17;8.70;99.90
22161;DHT22;49035;48.812;11.762;2023-04-15T13:47:43;8.60;99.90
22161;DHT22;49035;48.812;11.762;2023-04-15T13:50:09;8.60;99.90
22161;DHT22;49035;48.812;11.762;2023-04-15T13:52:35;8.70;99.90
22161;DHT22;49035;48.812;11.762;2023-04-15T13:55:02;8.80;99.90
22161;DHT22;49035;48.812;11.762;2023-04-15T13:57:28;9.00;99.90
22161;DHT22;49035;48.812;11.762;2023-04-15T13:59:53;9.40;99.90
22161;DHT22;49035;48.812;11.762;2023-04-15T14:02:20;9.70;99.90
22161;DHT22;49035;48.812;11.762;2023-04-15T14:04:45;9.90;99.90
22161;DHT22;49035;48.812;11.762;2023-04-15T14:07:11;10.40;99.90
22161;DHT22;49035;48.812;11.762;2023-04-15T14:09:37;10.60;99.90
22161;DHT22;49035;48.812;11.762;2023-04-15T14:12:02;10.50;99.90
22161;DHT22;49035;48.812;11.762;2023-04-15T14:14:28;10.10;99.90
22161;DHT22;49035;48.812;11.762;2023-04-15T14:16:54;9.80;99.90
22161;DHT22;49035;48.812;11.762;2023-04-15T14:19:20;9.30;99.90
22161;DHT22;49035;48.812;11.762;2023-04-15T14:21:46;9.00;99.90
22161;DHT22;49035;48.812;11.762;2023-04-15T14:24:12;8.80;99.90
22161;DHT22;49035;48.812;11.762;2023-04-15T14:26:37;8.70;99.90
22161;DHT22;49035;48.812;11.762;2023-04-15T14:29:03;8.50;99.90
22161;DHT22;49035;48.812;11.762;2023-04-15T14:31:28;8.50;99.90
22161;DHT22;49035;48.812;11.762;2023-04-15T14:33:55;8.50;99.90
22161;DHT22;49035;48.812;11.762;2023-04-15T14:36:21;8.50;99.90
22161;DHT22;49035;48.812;11.762;2023-04-15T14:38:46;8.60;99.90
22161;DHT22;49035;48.812;11.762;2023-04-15T14:41:12;8.70;99.90
22161;DHT22;49035;48.812;11.762;2023-04-15T14:43:37;8.80;99.90
22161;DHT22;49035;48.812;11.762;2023-04-15T14:46:03;8.80;99.90
22161;DHT22;49035;48.812;11.762;2023-04-15T14:48:30;8.70;99.90
22161;DHT22;49035;48.812;11.762;2023-04-15T14:50:56;8.70;99.90
22161;DHT22;49035;48.812;11.762;2023-04-15T14:53:21;8.80;99.90
22161;DHT22;49035;48.812;11.762;2023-04-15T14:55:47;8.90;99.90
22161;DHT22;49035;48.812;11.762;2023-04-15T14:58:12;9.00;99.90
22161;DHT22;49035;48.812;11.762;2023-04-15T15:00:38;9.00;99.90
22161;DHT22;49035;48.812;11.762;2023-04-15T15:03:07;9.10;99.90
22161;DHT22;49035;48.812;11.762;2023-04-15T15:05:46;9.30;99.90
22161;DHT22;49035;48.812;11.762;2023-04-15T15:08:12;9.10;99.90
22161;DHT22;49035;48.812;11.762;2023-04-15T15:10:39;9.10;99.90
22161;DHT22;49035;48.812;11.762;2023-04-15T15:13:09;8.90;99.90
22161;DHT22;49035;48.812;11.762;2023-04-15T15:15:36;8.60;99.90
22161;DHT22;49035;48.812;11.762;2023-04-15T15:18:02;8.60;99.90
22161;DHT22;49035;48.812;11.762;2023-04-15T15:20:28;8.50;99.90
22161;DHT22;49035;48.812;11.762;2023-04-15T15:22:54;8.50;99.90
22161;DHT22;49035;48.812;11.762;2023-04-15T15:25:20;8.50;99.90
22161;DHT22;49035;48.812;11.762;2023-04-15T15:27:45;8.40;99.90
22161;DHT22;49035;48.812;11.762;2023-04-15T15:30:11;8.40;99.90
22161;DHT22;49035;48.812;11.762;2023-04-15T15:32:39;8.50;99.90
22161;DHT22;49035;48.812;11.762;2023-04-15T15:35:05;8.40;99.90
22161;DHT22;49035;48.812;11.762;2023-04-15T15:37:31;8.50;99.90
22161;DHT22;49035;48.812;11.762;2023-04-15T15:39:57;8.50;99.90
22161;DHT22;49035;48.812;11.762;2023-04-15T15:42:23;8.50;99.90
22161;DHT22;49035;48.812;11.762;2023-04-15T15:44:49;8.60;99.90
22161;DHT22;49035;48.812;11.762;2023-04-15T15:47:20;8.70;99.90
22161;DHT22;49035;48.812;11.762;2023-04-15T15:49:46;8.80;99.90
22161;DHT22;49035;48.812;11.762;2023-04-15T15:52:11;8.80;99.90
22161;DHT22;49035;48.812;11.762;2023-04-15T15:54:38;8.70;99.90
22161;DHT22;49035;48.812;11.762;2023-04-15T15:57:04;8.60;99.90
22161;DHT22;49035;48.812;11.762;2023-04-15T15:59:29;8.40;99.90
22161;DHT22;49035;48.812;11.762;2023-04-15T16:01:55;8.40;99.90
22161;DHT22;49035;48.812;11.762;2023-04-15T16:04:21;8.30;99.90